sensor_id;sensor_type;location;lat;lon;timestamp;P1;durP1;ratioP1;P2;durP2;ratioP2
77451;SDS011;66537;52.370;4.832;2023-07-20T00:01:49;6.97;;;2.67;;
77451;SDS011;66537;52.370;4.832;2023-07-20T00:04:14;7.18;;;2.47;;
77451;SDS011;66537;52.370;4.832;2023-07-20T00:06:40;4.97;;;1.73;;
77451;SDS011;66537;52.370;4.832;2023-07-20T00:09:06;4.40;;;1.83;;
77451;SDS011;66537;52.370;4.832;2023-07-20T00:11:35;7.35;;;2.00;;
77451;SDS011;66537;52.370;4.832;2023-07-20T00:14:01;5.63;;;1.55;;
77451;SDS011;66537;52.370;4.832;2023-07-20T00:16:27;7.45;;;2.30;;
77451;SDS011;66537;52.370;4.832;2023-07-20T00:18:52;4.18;;;1.80;;
77451;SDS011;66537;52.370;4.832;2023-07-20T00:21:17;6.38;;;2.20;;
77451;SDS011;66537;52.370;4.832;2023-07-20T00:23:43;7.80;;;2.47;;
77451;SDS011;66537;52.370;4.832;2023-07-20T00:26:08;9.07;;;2.17;;
77451;SDS011;66537;52.370;4.832;2023-07-20T00:28:33;6.45;;;2.17;;
77451;SDS011;66537;52.370;4.832;2023-07-20T00:30:59;6.35;;;2.72;;
77451;SDS011;66537;52.370;4.832;2023-07-20T00:33:25;5.47;;;2.10;;
77451;SDS011;66537;52.370;4.832;2023-07-20T00:35:50;5.35;;;2.40;;
77451;SDS011;66537;52.370;4.832;2023-07-20T00:38:15;5.97;;;2.30;;
77451;SDS011;66537;52.370;4.832;2023-07-20T00:40:41;4.10;;;2.10;;
77451;SDS011;66537;52.370;4.832;2023-07-20T00:43:06;7.95;;;2.40;;
77451;SDS011;66537;52.370;4.832;2023-07-20T00:45:33;7.22;;;2.45;;
77451;SDS011;66537;52.370;4.832;2023-07-20T00:48:00;6.25;;;1.90;;
77451;SDS011;66537;52.370;4.832;2023-07-20T00:50:26;5.00;;;2.45;;
77451;SDS011;66537;52.370;4.832;2023-07-20T00:52:54;6.50;;;2.35;;
77451;SDS011;66537;52.370;4.832;2023-07-20T00:55:21;9.02;;;3.30;;
77451;SDS011;66537;52.370;4.832;2023-07-20T00:57:48;9.48;;;4.55;;
77451;SDS011;66537;52.370;4.832;2023-07-20T01:00:15;6.78;;;3.92;;
77451;SDS011;66537;52.370;4.832;2023-07-20T01:02:41;10.63;;;4.50;;
77451;SDS011;66537;52.370;4.832;2023-07-20T01:05:06;7.30;;;3.78;;
77451;SDS011;66537;52.370;4.832;2023-07-20T01:07:34;7.35;;;3.72;;
77451;SDS011;66537;52.370;4.832;2023-07-20T01:10:20;10.25;;;4.15;;
77451;SDS011;66537;52.370;4.832;2023-07-20T01:12:54;9.27;;;4.10;;
77451;SDS011;66537;52.370;4.832;2023-07-20T01:15:20;8.57;;;3.70;;
77451;SDS011;66537;52.370;4.832;2023-07-20T01:17:46;7.43;;;4.07;;
77451;SDS011;66537;52.370;4.832;2023-07-20T01:20:12;6.68;;;3.80;;
77451;SDS011;66537;52.370;4.832;2023-07-20T01:33:41;6.78;;;3.35;;
77451;SDS011;66537;52.370;4.832;2023-07-20T01:36:08;8.52;;;3.05;;
77451;SDS011;66537;52.370;4.832;2023-07-20T01:38:34;6.78;;;3.05;;
77451;SDS011;66537;52.370;4.832;2023-07-20T01:41:01;5.35;;;2.40;;
77451;SDS011;66537;52.370;4.832;2023-07-20T01:43:27;9.18;;;3.45;;
77451;SDS011;66537;52.370;4.832;2023-07-20T01:45:52;5.38;;;2.75;;
77451;SDS011;66537;52.370;4.832;2023-07-20T01:48:17;6.63;;;2.85;;
77451;SDS011;66537;52.370;4.832;2023-07-20T01:50:43;5.57;;;3.03;;
77451;SDS011;66537;52.370;4.832;2023-07-20T01:53:08;6.60;;;3.25;;
77451;SDS011;66537;52.370;4.832;2023-07-20T01:55:34;5.88;;;2.78;;
77451;SDS011;66537;52.370;4.832;2023-07-20T01:57:59;5.53;;;2.65;;
77451;SDS011;66537;52.370;4.832;2023-07-20T02:00:26;5.55;;;2.72;;
77451;SDS011;66537;52.370;4.832;2023-07-20T02:02:51;7.97;;;3.47;;
77451;SDS011;66537;52.370;4.832;2023-07-20T02:05:17;6.97;;;3.58;;
77451;SDS011;66537;52.370;4.832;2023-07-20T02:07:42;6.80;;;3.42;;
77451;SDS011;66537;52.370;4.832;2023-07-20T02:10:08;7.55;;;3.53;;
77451;SDS011;66537;52.370;4.832;2023-07-20T02:12:34;7.80;;;3.45;;
77451;SDS011;66537;52.370;4.832;2023-07-20T02:15:00;6.32;;;2.95;;
77451;SDS011;66537;52.370;4.832;2023-07-20T02:17:26;7.50;;;3.90;;
77451;SDS011;66537;52.370;4.832;2023-07-20T02:19:55;7.07;;;4.03;;
77451;SDS011;66537;52.370;4.832;2023-07-20T02:22:22;8.32;;;4.30;;
77451;SDS011;66537;52.370;4.832;2023-07-20T02:24:48;9.20;;;4.40;;
77451;SDS011;66537;52.370;4.832;2023-07-20T02:27:14;9.70;;;3.72;;
77451;SDS011;66537;52.370;4.832;2023-07-20T02:29:40;8.40;;;4.20;;
77451;SDS011;66537;52.370;4.832;2023-07-20T02:32:06;9.07;;;4.38;;
77451;SDS011;66537;52.370;4.832;2023-07-20T02:34:32;9.75;;;3.92;;
77451;SDS011;66537;52.370;4.832;2023-07-20T02:36:57;11.07;;;3.58;;
77451;SDS011;66537;52.370;4.832;2023-07-20T02:39:24;7.20;;;4.05;;
77451;SDS011;66537;52.370;4.832;2023-07-20T02:41:49;7.20;;;3.92;;
77451;SDS011;66537;52.370;4.832;2023-07-20T02:44:15;6.80;;;3.97;;
77451;SDS011;66537;52.370;4.832;2023-07-20T02:46:40;12.23;;;4.90;;
77451;SDS011;66537;52.370;4.832;2023-07-20T02:49:06;9.98;;;4.60;;
77451;SDS011;66537;52.370;4.832;2023-07-20T02:51:31;8.88;;;3.50;;
77451;SDS011;66537;52.370;4.832;2023-07-20T02:53:57;12.82;;;5.28;;
77451;SDS011;66537;52.370;4.832;2023-07-20T02:56:22;7.80;;;4.40;;
77451;SDS011;66537;52.370;4.832;2023-07-20T02:58:48;9.00;;;4.10;;
77451;SDS011;66537;52.370;4.832;2023-07-20T03:01:13;9.00;;;4.35;;
77451;SDS011;66537;52.370;4.832;2023-07-20T03:03:40;10.13;;;4.78;;
77451;SDS011;66537;52.370;4.832;2023-07-20T03:06:11;10.43;;;4.32;;
77451;SDS011;66537;52.370;4.832;2023-07-20T03:08:40;8.77;;;3.58;;
77451;SDS011;66537;52.370;4.832;2023-07-20T03:11:06;12.90;;;4.22;;
77451;SDS011;66537;52.370;4.832;2023-07-20T03:13:32;7.03;;;3.53;;
77451;SDS011;66537;52.370;4.832;2023-07-20T03:15:58;7.22;;;3.88;;
77451;SDS011;66537;52.370;4.832;2023-07-20T03:18:23;7.95;;;3.40;;
77451;SDS011;66537;52.370;4.832;2023-07-20T03:20:48;8.90;;;3.42;;
77451;SDS011;66537;52.370;4.832;2023-07-20T03:23:14;7.40;;;3.50;;
77451;SDS011;66537;52.370;4.832;2023-07-20T03:25:40;7.53;;;3.35;;
77451;SDS011;66537;52.370;4.832;2023-07-20T03:28:06;9.35;;;3.53;;
77451;SDS011;66537;52.370;4.832;2023-07-20T03:30:31;6.40;;;2.67;;
77451;SDS011;66537;52.370;4.832;2023-07-20T03:32:56;6.10;;;2.92;;
77451;SDS011;66537;52.370;4.832;2023-07-20T03:35:22;8.63;;;3.30;;
77451;SDS011;66537;52.370;4.832;2023-07-20T03:37:48;6.00;;;2.72;;
77451;SDS011;66537;52.370;4.832;2023-07-20T03:40:13;7.10;;;3.40;;
77451;SDS011;66537;52.370;4.832;2023-07-20T03:42:39;6.22;;;3.17;;
77451;SDS011;66537;52.370;4.832;2023-07-20T03:45:05;8.43;;;3.65;;
77451;SDS011;66537;52.370;4.832;2023-07-20T03:47:31;10.98;;;3.25;;
77451;SDS011;66537;52.370;4.832;2023-07-20T03:49:57;5.47;;;2.70;;
77451;SDS011;66537;52.370;4.832;2023-07-20T03:52:22;8.77;;;2.60;;
77451;SDS011;66537;52.370;4.832;2023-07-20T03:54:48;6.07;;;2.60;;
77451;SDS011;66537;52.370;4.832;2023-07-20T03:57:16;6.97;;;2.97;;
77451;SDS011;66537;52.370;4.832;2023-07-20T03:59:44;9.75;;;3.20;;
77451;SDS011;66537;52.370;4.832;2023-07-20T04:02:10;7.18;;;2.63;;
77451;SDS011;66537;52.370;4.832;2023-07-20T04:04:36;7.72;;;2.92;;
77451;SDS011;66537;52.370;4.832;2023-07-20T04:07:02;6.70;;;2.75;;
77451;SDS011;66537;52.370;4.832;2023-07-20T04:09:28;7.97;;;3.45;;
77451;SDS011;66537;52.370;4.832;2023-07-20T04:11:53;5.32;;;2.65;;
77451;SDS011;66537;52.370;4.832;2023-07-20T04:14:19;5.88;;;3.40;;
77451;SDS011;66537;52.370;4.832;2023-07-20T04:16:46;7.45;;;3.03;;
77451;SDS011;66537;52.370;4.832;2023-07-20T04:19:12;7.07;;;2.85;;
77451;SDS011;66537;52.370;4.832;2023-07-20T04:21:39;7.10;;;2.57;;
77451;SDS011;66537;52.370;4.832;2023-07-20T04:24:06;6.18;;;3.47;;
77451;SDS011;66537;52.370;4.832;2023-07-20T04:26:31;7.40;;;3.53;;
77451;SDS011;66537;52.370;4.832;2023-07-20T04:28:57;5.65;;;3.30;;
77451;SDS011;66537;52.370;4.832;2023-07-20T04:31:24;13.93;;;3.47;;
77451;SDS011;66537;52.370;4.832;2023-07-20T04:33:50;7.15;;;3.22;;
77451;SDS011;66537;52.370;4.832;2023-07-20T04:36:15;6.55;;;3.42;;
77451;SDS011;66537;52.370;4.832;2023-07-20T04:38:44;6.10;;;3.05;;
77451;SDS011;66537;52.370;4.832;2023-07-20T04:41:10;8.43;;;3.53;;
77451;SDS011;66537;52.370;4.832;2023-07-20T04:43:43;6.63;;;3.88;;
77451;SDS011;66537;52.370;4.832;2023-07-20T04:46:09;6.53;;;3.10;;
77451;SDS011;66537;52.370;4.832;2023-07-20T04:48:37;8.27;;;3.05;;
77451;SDS011;66537;52.370;4.832;2023-07-20T04:51:03;8.73;;;3.80;;
77451;SDS011;66537;52.370;4.832;2023-07-20T04:53:29;7.35;;;3.83;;
77451;SDS011;66537;52.370;4.832;2023-07-20T04:55:56;7.18;;;4.05;;
77451;SDS011;66537;52.370;4.832;2023-07-20T04:58:21;6.90;;;3.75;;
77451;SDS011;66537;52.370;4.832;2023-07-20T05:00:50;9.00;;;3.95;;
77451;SDS011;66537;52.370;4.832;2023-07-20T05:03:16;9.70;;;4.63;;
77451;SDS011;66537;52.370;4.832;2023-07-20T05:05:42;8.93;;;4.38;;
77451;SDS011;66537;52.370;4.832;2023-07-20T05:08:07;10.07;;;4.22;;
77451;SDS011;66537;52.370;4.832;2023-07-20T05:10:33;11.15;;;4.53;;
77451;SDS011;66537;52.370;4.832;2023-07-20T05:12:59;6.50;;;3.50;;
77451;SDS011;66537;52.370;4.832;2023-07-20T05:15:24;7.40;;;4.05;;
77451;SDS011;66537;52.370;4.832;2023-07-20T05:17:50;7.85;;;4.10;;
77451;SDS011;66537;52.370;4.832;2023-07-20T05:20:15;7.50;;;3.65;;
77451;SDS011;66537;52.370;4.832;2023-07-20T05:22:41;7.82;;;4.55;;
77451;SDS011;66537;52.370;4.832;2023-07-20T05:25:08;7.88;;;3.85;;
77451;SDS011;66537;52.370;4.832;2023-07-20T05:27:38;8.25;;;3.10;;
77451;SDS011;66537;52.370;4.832;2023-07-20T05:30:05;8.45;;;3.78;;
77451;SDS011;66537;52.370;4.832;2023-07-20T05:32:32;12.27;;;3.35;;
77451;SDS011;66537;52.370;4.832;2023-07-20T05:34:57;7.78;;;3.30;;
77451;SDS011;66537;52.370;4.832;2023-07-20T05:37:23;7.95;;;2.90;;
77451;SDS011;66537;52.370;4.832;2023-07-20T05:39:48;8.17;;;3.23;;
77451;SDS011;66537;52.370;4.832;2023-07-20T05:42:13;6.80;;;3.15;;
77451;SDS011;66537;52.370;4.832;2023-07-20T05:44:39;7.55;;;3.50;;
77451;SDS011;66537;52.370;4.832;2023-07-20T05:47:05;10.35;;;3.80;;
77451;SDS011;66537;52.370;4.832;2023-07-20T05:49:31;5.93;;;3.13;;
77451;SDS011;66537;52.370;4.832;2023-07-20T05:51:56;7.13;;;2.33;;
77451;SDS011;66537;52.370;4.832;2023-07-20T05:54:23;11.35;;;3.70;;
77451;SDS011;66537;52.370;4.832;2023-07-20T05:56:52;8.00;;;2.80;;
77451;SDS011;66537;52.370;4.832;2023-07-20T05:59:18;6.75;;;2.20;;
77451;SDS011;66537;52.370;4.832;2023-07-20T06:01:48;10.40;;;3.10;;
77451;SDS011;66537;52.370;4.832;2023-07-20T06:04:14;7.03;;;2.80;;
77451;SDS011;66537;52.370;4.832;2023-07-20T06:06:40;6.47;;;3.15;;
77451;SDS011;66537;52.370;4.832;2023-07-20T06:09:05;9.73;;;3.97;;
77451;SDS011;66537;52.370;4.832;2023-07-20T06:11:34;7.70;;;2.80;;
77451;SDS011;66537;52.370;4.832;2023-07-20T06:14:00;6.20;;;1.58;;
77451;SDS011;66537;52.370;4.832;2023-07-20T06:16:25;7.60;;;1.42;;
77451;SDS011;66537;52.370;4.832;2023-07-20T06:18:50;5.30;;;1.08;;
77451;SDS011;66537;52.370;4.832;2023-07-20T06:21:16;4.40;;;1.65;;
77451;SDS011;66537;52.370;4.832;2023-07-20T06:23:41;4.00;;;1.40;;
77451;SDS011;66537;52.370;4.832;2023-07-20T06:26:07;4.10;;;1.30;;
77451;SDS011;66537;52.370;4.832;2023-07-20T06:28:32;4.32;;;0.98;;
77451;SDS011;66537;52.370;4.832;2023-07-20T06:30:59;2.67;;;0.77;;
77451;SDS011;66537;52.370;4.832;2023-07-20T06:33:25;3.42;;;0.80;;
77451;SDS011;66537;52.370;4.832;2023-07-20T06:35:51;3.92;;;0.73;;
77451;SDS011;66537;52.370;4.832;2023-07-20T06:38:17;5.60;;;1.00;;
77451;SDS011;66537;52.370;4.832;2023-07-20T06:40:43;3.25;;;0.77;;
77451;SDS011;66537;52.370;4.832;2023-07-20T06:43:09;2.13;;;0.50;;
77451;SDS011;66537;52.370;4.832;2023-07-20T06:45:34;3.35;;;1.10;;
77451;SDS011;66537;52.370;4.832;2023-07-20T06:47:59;2.90;;;0.77;;
77451;SDS011;66537;52.370;4.832;2023-07-20T06:50:25;3.77;;;1.50;;
77451;SDS011;66537;52.370;4.832;2023-07-20T06:52:50;2.50;;;0.85;;
77451;SDS011;66537;52.370;4.832;2023-07-20T06:55:15;4.03;;;0.68;;
77451;SDS011;66537;52.370;4.832;2023-07-20T06:57:41;2.40;;;0.75;;
77451;SDS011;66537;52.370;4.832;2023-07-20T07:00:06;3.22;;;0.75;;
77451;SDS011;66537;52.370;4.832;2023-07-20T07:02:32;3.03;;;0.80;;
77451;SDS011;66537;52.370;4.832;2023-07-20T07:04:59;8.57;;;1.00;;
77451;SDS011;66537;52.370;4.832;2023-07-20T07:07:24;3.92;;;0.95;;
77451;SDS011;66537;52.370;4.832;2023-07-20T07:09:50;3.90;;;0.85;;
77451;SDS011;66537;52.370;4.832;2023-07-20T07:12:15;3.28;;;0.80;;
77451;SDS011;66537;52.370;4.832;2023-07-20T07:14:41;3.35;;;0.98;;
77451;SDS011;66537;52.370;4.832;2023-07-20T07:17:06;4.80;;;0.80;;
77451;SDS011;66537;52.370;4.832;2023-07-20T07:19:32;6.13;;;1.45;;
77451;SDS011;66537;52.370;4.832;2023-07-20T07:21:58;4.68;;;1.25;;
77451;SDS011;66537;52.370;4.832;2023-07-20T07:24:23;3.75;;;0.90;;
77451;SDS011;66537;52.370;4.832;2023-07-20T07:26:49;2.40;;;0.93;;
77451;SDS011;66537;52.370;4.832;2023-07-20T07:29:14;3.85;;;1.17;;
77451;SDS011;66537;52.370;4.832;2023-07-20T07:31:39;5.50;;;1.60;;
77451;SDS011;66537;52.370;4.832;2023-07-20T07:34:05;3.47;;;1.15;;
77451;SDS011;66537;52.370;4.832;2023-07-20T07:36:30;5.10;;;1.08;;
77451;SDS011;66537;52.370;4.832;2023-07-20T07:38:56;5.22;;;1.58;;
77451;SDS011;66537;52.370;4.832;2023-07-20T07:41:22;6.47;;;1.20;;
77451;SDS011;66537;52.370;4.832;2023-07-20T07:43:47;2.78;;;1.40;;
77451;SDS011;66537;52.370;4.832;2023-07-20T07:46:13;5.18;;;1.20;;
77451;SDS011;66537;52.370;4.832;2023-07-20T07:48:39;6.00;;;1.42;;
77451;SDS011;66537;52.370;4.832;2023-07-20T07:51:04;4.65;;;1.30;;
77451;SDS011;66537;52.370;4.832;2023-07-20T07:53:31;7.43;;;2.42;;
77451;SDS011;66537;52.370;4.832;2023-07-20T07:55:57;7.68;;;1.98;;
77451;SDS011;66537;52.370;4.832;2023-07-20T07:58:23;4.00;;;1.70;;
77451;SDS011;66537;52.370;4.832;2023-07-20T08:00:49;4.53;;;1.30;;
77451;SDS011;66537;52.370;4.832;2023-07-20T08:03:14;4.10;;;0.80;;
77451;SDS011;66537;52.370;4.832;2023-07-20T08:05:40;3.50;;;0.95;;
77451;SDS011;66537;52.370;4.832;2023-07-20T08:08:05;3.97;;;1.58;;
77451;SDS011;66537;52.370;4.832;2023-07-20T08:10:31;2.90;;;0.85;;
77451;SDS011;66537;52.370;4.832;2023-07-20T08:12:56;4.53;;;1.55;;
77451;SDS011;66537;52.370;4.832;2023-07-20T08:15:22;4.72;;;1.10;;
77451;SDS011;66537;52.370;4.832;2023-07-20T08:17:48;2.22;;;1.00;;
77451;SDS011;66537;52.370;4.832;2023-07-20T08:20:16;3.28;;;1.10;;
77451;SDS011;66537;52.370;4.832;2023-07-20T08:22:43;3.70;;;1.30;;
77451;SDS011;66537;52.370;4.832;2023-07-20T08:25:08;2.65;;;0.95;;
77451;SDS011;66537;52.370;4.832;2023-07-20T08:27:34;4.85;;;1.52;;
77451;SDS011;66537;52.370;4.832;2023-07-20T08:30:00;3.67;;;1.45;;
77451;SDS011;66537;52.370;4.832;2023-07-20T08:32:26;3.83;;;0.90;;
77451;SDS011;66537;52.370;4.832;2023-07-20T08:34:51;5.85;;;1.08;;
77451;SDS011;66537;52.370;4.832;2023-07-20T08:37:17;6.32;;;1.33;;
77451;SDS011;66537;52.370;4.832;2023-07-20T08:39:42;4.07;;;1.38;;
77451;SDS011;66537;52.370;4.832;2023-07-20T08:42:08;2.67;;;0.93;;
77451;SDS011;66537;52.370;4.832;2023-07-20T08:44:35;4.40;;;1.25;;
77451;SDS011;66537;52.370;4.832;2023-07-20T08:47:03;2.92;;;1.15;;
77451;SDS011;66537;52.370;4.832;2023-07-20T08:49:31;4.68;;;0.93;;
77451;SDS011;66537;52.370;4.832;2023-07-20T08:51:57;4.60;;;1.50;;
77451;SDS011;66537;52.370;4.832;2023-07-20T08:54:24;3.60;;;0.90;;
77451;SDS011;66537;52.370;4.832;2023-07-20T08:56:52;5.53;;;1.90;;
77451;SDS011;66537;52.370;4.832;2023-07-20T08:59:20;6.80;;;1.52;;
77451;SDS011;66537;52.370;4.832;2023-07-20T09:01:49;10.35;;;1.30;;
77451;SDS011;66537;52.370;4.832;2023-07-20T09:04:17;3.47;;;1.15;;
77451;SDS011;66537;52.370;4.832;2023-07-20T09:06:43;4.05;;;1.40;;
77451;SDS011;66537;52.370;4.832;2023-07-20T09:09:08;3.15;;;1.17;;
77451;SDS011;66537;52.370;4.832;2023-07-20T09:11:34;3.00;;;1.10;;
77451;SDS011;66537;52.370;4.832;2023-07-20T09:14:03;3.55;;;1.15;;
77451;SDS011;66537;52.370;4.832;2023-07-20T09:16:32;3.33;;;1.50;;
77451;SDS011;66537;52.370;4.832;2023-07-20T09:19:11;5.47;;;1.05;;
77451;SDS011;66537;52.370;4.832;2023-07-20T09:21:37;3.75;;;1.00;;
77451;SDS011;66537;52.370;4.832;2023-07-20T09:24:03;4.07;;;1.35;;
77451;SDS011;66537;52.370;4.832;2023-07-20T09:26:28;2.92;;;1.13;;
77451;SDS011;66537;52.370;4.832;2023-07-20T09:28:54;10.35;;;4.18;;
77451;SDS011;66537;52.370;4.832;2023-07-20T09:31:21;3.72;;;0.90;;
77451;SDS011;66537;52.370;4.832;2023-07-20T09:33:47;4.30;;;1.15;;
77451;SDS011;66537;52.370;4.832;2023-07-20T09:36:14;3.08;;;0.90;;
77451;SDS011;66537;52.370;4.832;2023-07-20T09:38:42;4.25;;;0.98;;
77451;SDS011;66537;52.370;4.832;2023-07-20T09:41:12;2.35;;;0.70;;
77451;SDS011;66537;52.370;4.832;2023-07-20T09:43:39;4.63;;;0.70;;
77451;SDS011;66537;52.370;4.832;2023-07-20T09:46:05;3.13;;;0.80;;
77451;SDS011;66537;52.370;4.832;2023-07-20T09:48:30;2.17;;;0.35;;
77451;SDS011;66537;52.370;4.832;2023-07-20T09:50:59;3.17;;;0.73;;
77451;SDS011;66537;52.370;4.832;2023-07-20T09:53:25;3.28;;;0.60;;
77451;SDS011;66537;52.370;4.832;2023-07-20T09:55:52;3.58;;;0.80;;
77451;SDS011;66537;52.370;4.832;2023-07-20T09:58:18;2.75;;;0.65;;
77451;SDS011;66537;52.370;4.832;2023-07-20T10:00:46;3.40;;;0.90;;
77451;SDS011;66537;52.370;4.832;2023-07-20T10:05:52;3.47;;;0.80;;
77451;SDS011;66537;52.370;4.832;2023-07-20T10:08:19;5.93;;;0.98;;
77451;SDS011;66537;52.370;4.832;2023-07-20T10:10:48;2.30;;;0.60;;
77451;SDS011;66537;52.370;4.832;2023-07-20T10:13:17;2.65;;;0.60;;
77451;SDS011;66537;52.370;4.832;2023-07-20T10:15:46;2.50;;;0.88;;
77451;SDS011;66537;52.370;4.832;2023-07-20T10:18:17;2.78;;;0.60;;
77451;SDS011;66537;52.370;4.832;2023-07-20T10:20:59;3.50;;;1.52;;
77451;SDS011;66537;52.370;4.832;2023-07-20T10:23:26;4.05;;;1.30;;
77451;SDS011;66537;52.370;4.832;2023-07-20T10:25:54;2.83;;;0.88;;
77451;SDS011;66537;52.370;4.832;2023-07-20T10:28:21;4.00;;;1.15;;
77451;SDS011;66537;52.370;4.832;2023-07-20T10:30:48;2.05;;;0.95;;
77451;SDS011;66537;52.370;4.832;2023-07-20T10:33:15;2.38;;;1.08;;
77451;SDS011;66537;52.370;4.832;2023-07-20T10:35:52;2.80;;;1.08;;
77451;SDS011;66537;52.370;4.832;2023-07-20T10:43:47;2.78;;;0.80;;
77451;SDS011;66537;52.370;4.832;2023-07-20T10:46:14;2.78;;;0.82;;
77451;SDS011;66537;52.370;4.832;2023-07-20T10:49:13;2.35;;;1.25;;
77451;SDS011;66537;52.370;4.832;2023-07-20T10:56:44;3.33;;;0.40;;
77451;SDS011;66537;52.370;4.832;2023-07-20T10:59:19;2.50;;;1.08;;
77451;SDS011;66537;52.370;4.832;2023-07-20T11:02:02;2.60;;;0.50;;
77451;SDS011;66537;52.370;4.832;2023-07-20T11:07:07;1.80;;;0.70;;
77451;SDS011;66537;52.370;4.832;2023-07-20T11:09:36;1.60;;;0.38;;
77451;SDS011;66537;52.370;4.832;2023-07-20T11:12:15;2.85;;;0.35;;
77451;SDS011;66537;52.370;4.832;2023-07-20T11:14:56;3.85;;;0.95;;
77451;SDS011;66537;52.370;4.832;2023-07-20T11:17:29;5.40;;;1.17;;
77451;SDS011;66537;52.370;4.832;2023-07-20T11:19:56;2.30;;;0.80;;
77451;SDS011;66537;52.370;4.832;2023-07-20T11:22:23;2.65;;;0.82;;
77451;SDS011;66537;52.370;4.832;2023-07-20T11:24:49;2.60;;;0.85;;
77451;SDS011;66537;52.370;4.832;2023-07-20T11:27:15;2.22;;;0.60;;
77451;SDS011;66537;52.370;4.832;2023-07-20T11:29:41;2.75;;;0.68;;
77451;SDS011;66537;52.370;4.832;2023-07-20T11:32:06;2.17;;;0.60;;
77451;SDS011;66537;52.370;4.832;2023-07-20T11:34:33;4.28;;;1.00;;
77451;SDS011;66537;52.370;4.832;2023-07-20T11:36:59;2.42;;;0.80;;
77451;SDS011;66537;52.370;4.832;2023-07-20T11:39:25;2.17;;;0.75;;
77451;SDS011;66537;52.370;4.832;2023-07-20T11:41:52;3.50;;;1.08;;
77451;SDS011;66537;52.370;4.832;2023-07-20T11:44:22;3.35;;;0.88;;
77451;SDS011;66537;52.370;4.832;2023-07-20T11:47:04;2.40;;;0.55;;
77451;SDS011;66537;52.370;4.832;2023-07-20T11:49:38;5.97;;;0.82;;
77451;SDS011;66537;52.370;4.832;2023-07-20T11:52:09;2.30;;;0.68;;
77451;SDS011;66537;52.370;4.832;2023-07-20T11:54:39;2.38;;;0.80;;
77451;SDS011;66537;52.370;4.832;2023-07-20T11:57:05;3.13;;;1.02;;
77451;SDS011;66537;52.370;4.832;2023-07-20T11:59:31;2.83;;;0.80;;
77451;SDS011;66537;52.370;4.832;2023-07-20T12:02:01;5.32;;;0.98;;
77451;SDS011;66537;52.370;4.832;2023-07-20T12:04:27;2.72;;;0.70;;
77451;SDS011;66537;52.370;4.832;2023-07-20T12:06:53;4.68;;;0.70;;
77451;SDS011;66537;52.370;4.832;2023-07-20T12:09:20;2.22;;;0.70;;
77451;SDS011;66537;52.370;4.832;2023-07-20T12:11:48;2.30;;;0.70;;
77451;SDS011;66537;52.370;4.832;2023-07-20T12:14:14;2.40;;;0.55;;
77451;SDS011;66537;52.370;4.832;2023-07-20T12:16:40;3.33;;;0.70;;
77451;SDS011;66537;52.370;4.832;2023-07-20T12:19:06;2.80;;;0.60;;
77451;SDS011;66537;52.370;4.832;2023-07-20T12:21:36;3.88;;;0.70;;
77451;SDS011;66537;52.370;4.832;2023-07-20T12:24:03;3.05;;;1.20;;
77451;SDS011;66537;52.370;4.832;2023-07-20T12:26:29;4.45;;;0.70;;
77451;SDS011;66537;52.370;4.832;2023-07-20T12:28:56;2.78;;;0.80;;
77451;SDS011;66537;52.370;4.832;2023-07-20T12:31:22;2.58;;;0.70;;
77451;SDS011;66537;52.370;4.832;2023-07-20T12:33:49;3.40;;;0.95;;
77451;SDS011;66537;52.370;4.832;2023-07-20T12:36:17;2.95;;;0.60;;
77451;SDS011;66537;52.370;4.832;2023-07-20T12:38:43;3.22;;;0.93;;
77451;SDS011;66537;52.370;4.832;2023-07-20T12:41:09;3.67;;;0.70;;
77451;SDS011;66537;52.370;4.832;2023-07-20T12:43:37;3.53;;;0.68;;
77451;SDS011;66537;52.370;4.832;2023-07-20T12:46:03;3.33;;;0.68;;
77451;SDS011;66537;52.370;4.832;2023-07-20T12:48:28;3.28;;;0.77;;
77451;SDS011;66537;52.370;4.832;2023-07-20T12:50:54;3.15;;;0.50;;
77451;SDS011;66537;52.370;4.832;2023-07-20T12:53:20;2.83;;;0.82;;
77451;SDS011;66537;52.370;4.832;2023-07-20T12:55:45;1.85;;;0.50;;
77451;SDS011;66537;52.370;4.832;2023-07-20T12:58:11;3.60;;;0.60;;
77451;SDS011;66537;52.370;4.832;2023-07-20T13:00:36;2.15;;;0.75;;
77451;SDS011;66537;52.370;4.832;2023-07-20T13:03:02;3.72;;;0.77;;
77451;SDS011;66537;52.370;4.832;2023-07-20T13:05:31;2.08;;;0.45;;
77451;SDS011;66537;52.370;4.832;2023-07-20T13:07:57;1.90;;;0.50;;
77451;SDS011;66537;52.370;4.832;2023-07-20T13:10:23;2.58;;;0.60;;
77451;SDS011;66537;52.370;4.832;2023-07-20T13:12:49;2.28;;;0.57;;
77451;SDS011;66537;52.370;4.832;2023-07-20T13:15:17;2.03;;;0.63;;
77451;SDS011;66537;52.370;4.832;2023-07-20T13:17:42;3.33;;;0.60;;
77451;SDS011;66537;52.370;4.832;2023-07-20T13:20:08;2.78;;;0.85;;
77451;SDS011;66537;52.370;4.832;2023-07-20T13:22:36;5.45;;;0.68;;
77451;SDS011;66537;52.370;4.832;2023-07-20T13:25:02;3.60;;;0.80;;
77451;SDS011;66537;52.370;4.832;2023-07-20T13:27:28;2.80;;;0.50;;
77451;SDS011;66537;52.370;4.832;2023-07-20T13:29:55;2.20;;;0.50;;
77451;SDS011;66537;52.370;4.832;2023-07-20T13:32:21;1.38;;;0.30;;
77451;SDS011;66537;52.370;4.832;2023-07-20T13:34:47;1.63;;;0.40;;
77451;SDS011;66537;52.370;4.832;2023-07-20T13:37:13;3.58;;;0.60;;
77451;SDS011;66537;52.370;4.832;2023-07-20T13:39:39;3.58;;;0.65;;
77451;SDS011;66537;52.370;4.832;2023-07-20T13:42:04;2.75;;;0.43;;
77451;SDS011;66537;52.370;4.832;2023-07-20T13:44:33;1.90;;;0.20;;
77451;SDS011;66537;52.370;4.832;2023-07-20T13:46:59;4.15;;;0.52;;
77451;SDS011;66537;52.370;4.832;2023-07-20T13:49:25;2.03;;;0.50;;
77451;SDS011;66537;52.370;4.832;2023-07-20T13:51:51;2.63;;;0.40;;
77451;SDS011;66537;52.370;4.832;2023-07-20T13:54:16;2.03;;;0.30;;
77451;SDS011;66537;52.370;4.832;2023-07-20T13:56:42;3.78;;;0.50;;
77451;SDS011;66537;52.370;4.832;2023-07-20T13:59:07;3.65;;;0.75;;
77451;SDS011;66537;52.370;4.832;2023-07-20T14:01:32;1.92;;;0.60;;
77451;SDS011;66537;52.370;4.832;2023-07-20T14:03:59;3.28;;;0.73;;
77451;SDS011;66537;52.370;4.832;2023-07-20T14:06:25;2.17;;;0.65;;
77451;SDS011;66537;52.370;4.832;2023-07-20T14:08:51;2.45;;;0.77;;
77451;SDS011;66537;52.370;4.832;2023-07-20T14:11:18;2.35;;;0.57;;
77451;SDS011;66537;52.370;4.832;2023-07-20T14:13:43;3.22;;;0.40;;
77451;SDS011;66537;52.370;4.832;2023-07-20T14:16:09;1.75;;;0.50;;
77451;SDS011;66537;52.370;4.832;2023-07-20T14:18:34;2.42;;;0.55;;
77451;SDS011;66537;52.370;4.832;2023-07-20T14:21:00;2.75;;;0.98;;
77451;SDS011;66537;52.370;4.832;2023-07-20T14:23:30;2.08;;;0.63;;
77451;SDS011;66537;52.370;4.832;2023-07-20T14:25:55;3.85;;;0.88;;
77451;SDS011;66537;52.370;4.832;2023-07-20T14:28:21;3.42;;;0.40;;
77451;SDS011;66537;52.370;4.832;2023-07-20T14:30:46;3.10;;;0.70;;
77451;SDS011;66537;52.370;4.832;2023-07-20T14:33:12;2.17;;;0.55;;
77451;SDS011;66537;52.370;4.832;2023-07-20T14:35:37;1.50;;;0.28;;
77451;SDS011;66537;52.370;4.832;2023-07-20T14:38:03;3.78;;;0.80;;
77451;SDS011;66537;52.370;4.832;2023-07-20T14:40:29;2.40;;;0.60;;
77451;SDS011;66537;52.370;4.832;2023-07-20T14:42:57;3.33;;;0.40;;
77451;SDS011;66537;52.370;4.832;2023-07-20T14:45:22;3.97;;;0.77;;
77451;SDS011;66537;52.370;4.832;2023-07-20T14:47:48;3.40;;;0.80;;
77451;SDS011;66537;52.370;4.832;2023-07-20T14:50:18;4.72;;;0.52;;
77451;SDS011;66537;52.370;4.832;2023-07-20T14:52:44;2.55;;;0.80;;
77451;SDS011;66537;52.370;4.832;2023-07-20T14:55:10;2.97;;;0.65;;
77451;SDS011;66537;52.370;4.832;2023-07-20T14:57:36;2.03;;;0.57;;
77451;SDS011;66537;52.370;4.832;2023-07-20T15:00:02;2.95;;;0.50;;
77451;SDS011;66537;52.370;4.832;2023-07-20T15:02:32;2.75;;;0.70;;
77451;SDS011;66537;52.370;4.832;2023-07-20T15:04:57;3.17;;;0.40;;
77451;SDS011;66537;52.370;4.832;2023-07-20T15:07:23;2.22;;;0.30;;
77451;SDS011;66537;52.370;4.832;2023-07-20T15:09:48;3.63;;;0.65;;
77451;SDS011;66537;52.370;4.832;2023-07-20T15:12:14;3.40;;;0.52;;